createdAt,value
2019-01-15T00:00:07.610Z,23.4
2019-01-15T00:02:04.809Z,23.4
2019-01-15T00:04:10.097Z,23.4
2019-01-15T00:06:04.829Z,23.4
2019-01-15T00:08:04.670Z,23.5
2019-01-15T00:10:04.829Z,23.5
2019-01-15T00:12:07.875Z,23.5
2019-01-15T00:14:04.767Z,23.5
2019-01-15T00:16:05.469Z,23.5
2019-01-15T00:18:05.577Z,23.5
2019-01-15T00:20:07.867Z,23.5
2019-01-15T00:22:04.678Z,23.5
2019-01-15T00:24:04.820Z,23.5
2019-01-15T00:26:05.624Z,23.5
2019-01-15T00:28:05.615Z,23.5
2019-01-15T00:30:05.359Z,23.5
2019-01-15T00:32:05.285Z,23.5
2019-01-15T00:34:08.168Z,23.5
2019-01-15T00:36:05.197Z,23.5
2019-01-15T00:38:04.959Z,23.5
2019-01-15T00:40:05.264Z,23.6
2019-01-15T00:42:15.165Z,23.5
2019-01-15T00:44:05.198Z,23.5
2019-01-15T00:46:04.886Z,23.5
2019-01-15T00:48:04.808Z,23.5
2019-01-15T00:50:04.861Z,23.6
2019-01-15T00:52:04.934Z,23.6
2019-01-15T00:54:04.971Z,23.6
2019-01-15T00:56:04.935Z,23.6
2019-01-15T00:58:05.146Z,23.6
2019-01-15T01:00:07.336Z,23.6
2019-01-15T01:02:05.519Z,23.6
2019-01-15T01:04:05.422Z,23.6
2019-01-15T01:06:05.190Z,23.6
2019-01-15T01:08:05.155Z,23.6
2019-01-15T01:10:07.363Z,23.6
2019-01-15T01:12:05.046Z,23.6
2019-01-15T01:14:07.346Z,23.6
2019-01-15T01:16:05.264Z,23.6
2019-01-15T01:18:05.204Z,23.6
2019-01-15T01:20:04.891Z,23.6
2019-01-15T01:22:12.426Z,23.5
2019-01-15T01:24:04.681Z,23.5
2019-01-15T01:26:05.376Z,23.6
2019-01-15T01:28:05.282Z,23.6
2019-01-15T01:30:07.480Z,23.5
2019-01-15T01:32:05.156Z,23.5
2019-01-15T01:34:04.902Z,23.6
2019-01-15T01:36:04.845Z,23.6
2019-01-15T01:38:05.604Z,23.6
2019-01-15T01:40:05.230Z,23.6
2019-01-15T01:42:05.191Z,23.5
2019-01-15T01:44:04.930Z,23.6
2019-01-15T01:46:07.143Z,23.5
2019-01-15T01:48:04.838Z,23.5
2019-01-15T01:50:05.492Z,23.6
2019-01-15T01:52:07.734Z,23.6
2019-01-15T01:54:07.937Z,23.6
2019-01-15T01:56:04.719Z,23.6
2019-01-15T01:58:07.211Z,23.6
2019-01-15T02:00:05.411Z,23.6
2019-01-15T02:02:05.322Z,23.6
2019-01-15T02:04:05.017Z,23.6
2019-01-15T02:06:07.215Z,23.6
2019-01-15T02:08:05.382Z,23.5
2019-01-15T02:10:07.847Z,23.6
2019-01-15T02:12:05.575Z,23.6
2019-01-15T02:14:05.526Z,23.6
2019-01-15T02:16:05.190Z,23.6
2019-01-15T02:18:07.768Z,23.6
2019-01-15T02:20:05.478Z,23.5
2019-01-15T02:22:05.181Z,23.6
2019-01-15T02:24:04.891Z,23.6
2019-01-15T02:26:05.647Z,23.6
2019-01-15T02:28:08.047Z,23.6
2019-01-15T02:30:04.715Z,23.5
2019-01-15T02:32:10.526Z,23.6
2019-01-15T02:34:07.775Z,23.6
2019-01-15T02:36:05.553Z,23.6
2019-01-15T02:38:05.227Z,23.6
2019-01-15T02:40:05.002Z,23.6
2019-01-15T02:42:04.689Z,23.6
2019-01-15T02:44:04.908Z,23.6
2019-01-15T02:46:07.140Z,23.6
2019-01-15T02:48:07.358Z,23.6
2019-01-15T02:50:07.570Z,23.6
2019-01-15T02:52:05.257Z,23.6
2019-01-15T02:54:05.187Z,23.6
2019-01-15T02:56:04.899Z,23.6
2019-01-15T02:58:05.585Z,23.6
2019-01-15T03:00:05.340Z,23.6
2019-01-15T03:02:05.007Z,23.6
2019-01-15T03:04:07.268Z,23.6
2019-01-15T03:06:05.005Z,23.6
2019-01-15T03:08:05.280Z,23.6
2019-01-15T03:10:04.951Z,23.6
2019-01-15T03:12:04.871Z,23.6
2019-01-15T03:14:05.570Z,23.6
2019-01-15T03:16:05.350Z,23.6
2019-01-15T03:18:05.275Z,23.6
2019-01-15T03:20:05.036Z,23.6
2019-01-15T03:22:04.691Z,23.6
2019-01-15T03:24:04.938Z,23.6
2019-01-15T03:26:04.623Z,23.6
2019-01-15T03:28:10.377Z,23.6
2019-01-15T03:30:07.610Z,23.6
2019-01-15T03:32:05.349Z,23.6
2019-01-15T03:34:05.098Z,23.6
2019-01-15T03:36:07.337Z,23.6
2019-01-15T03:38:07.552Z,23.6
2019-01-15T03:40:05.228Z,23.6
2019-01-15T03:42:05.427Z,23.6
2019-01-15T03:44:05.197Z,23.6
2019-01-15T03:46:04.880Z,23.6
2019-01-15T03:48:05.594Z,23.5
2019-01-15T03:50:04.798Z,23.6
2019-01-15T03:52:05.617Z,23.6
2019-01-15T03:54:05.396Z,23.6
2019-01-15T03:56:04.765Z,23.6
2019-01-15T03:58:05.502Z,23.6
2019-01-15T04:00:05.255Z,23.6
2019-01-15T04:02:04.982Z,23.6
2019-01-15T04:04:04.747Z,23.6
2019-01-15T04:06:05.410Z,23.6
2019-01-15T04:08:10.220Z,23.6
2019-01-15T04:10:04.897Z,23.6
2019-01-15T04:12:05.579Z,23.6
2019-01-15T04:14:05.322Z,23.6
2019-01-15T04:16:04.994Z,23.6
2019-01-15T04:18:04.909Z,23.6
2019-01-15T04:20:04.649Z,23.6
2019-01-15T04:22:05.363Z,23.6
2019-01-15T04:24:07.587Z,23.6
2019-01-15T04:26:05.260Z,23.6
2019-01-15T04:28:04.928Z,23.6
2019-01-15T04:30:04.691Z,23.6
2019-01-15T04:32:05.359Z,23.6
2019-01-15T04:34:05.042Z,23.6
2019-01-15T04:36:04.723Z,23.6
2019-01-15T04:38:10.495Z,23.6
2019-01-15T04:40:04.703Z,23.6
2019-01-15T04:42:05.373Z,23.6
2019-01-15T04:44:05.098Z,23.6
2019-01-15T04:46:04.809Z,23.6
2019-01-15T04:48:05.488Z,23.6
2019-01-15T04:50:05.155Z,23.6
2019-01-15T04:52:04.807Z,23.6
2019-01-15T04:54:05.519Z,23.6
2019-01-15T04:56:10.316Z,23.7
2019-01-15T04:58:05.605Z,23.6
2019-01-15T05:00:05.342Z,23.6
2019-01-15T05:02:07.603Z,23.6
2019-01-15T05:04:05.277Z,23.7
2019-01-15T05:06:05.230Z,23.6
2019-01-15T05:08:05.049Z,23.6
2019-01-15T05:10:07.285Z,23.6
2019-01-15T05:12:05.553Z,23.6
2019-01-15T05:14:05.354Z,23.6
2019-01-15T05:16:07.608Z,23.6
2019-01-15T05:18:05.518Z,23.6
2019-01-15T05:20:05.228Z,23.6
2019-01-15T05:22:04.895Z,23.6
2019-01-15T05:24:05.145Z,23.6
2019-01-15T05:26:04.917Z,23.6
2019-01-15T05:28:07.728Z,23.6
2019-01-15T05:30:05.095Z,23.6
2019-01-15T05:32:05.333Z,23.6
2019-01-15T05:34:05.053Z,23.6
2019-01-15T05:36:04.711Z,23.6
2019-01-15T05:38:05.427Z,23.6
2019-01-15T05:40:05.186Z,23.6
2019-01-15T05:42:04.964Z,23.6
2019-01-15T05:44:04.773Z,23.6
2019-01-15T05:46:05.189Z,23.6
2019-01-15T05:48:04.973Z,23.6
2019-01-15T05:50:04.647Z,23.6
2019-01-15T05:52:05.335Z,23.6
2019-01-15T05:54:07.568Z,23.6
2019-01-15T05:56:05.352Z,23.6
2019-01-15T05:58:05.112Z,23.6
2019-01-15T06:00:07.354Z,23.6
2019-01-15T06:02:05.032Z,23.6
2019-01-15T06:04:04.673Z,23.6
2019-01-15T06:06:05.353Z,23.6
2019-01-15T06:08:05.019Z,23.6
2019-01-15T06:10:04.765Z,23.6
2019-01-15T06:12:05.481Z,23.6
2019-01-15T06:14:05.160Z,23.6
2019-01-15T06:16:04.822Z,23.5
2019-01-15T06:18:04.781Z,23.5
2019-01-15T06:20:05.510Z,23.5
2019-01-15T06:22:05.480Z,23.5
2019-01-15T06:24:10.193Z,23.5
2019-01-15T06:26:05.020Z,23.5
2019-01-15T06:28:04.713Z,23.5
2019-01-15T06:30:05.352Z,23.5
2019-01-15T06:32:05.071Z,23.4
2019-01-15T06:34:04.740Z,23.4
2019-01-15T06:36:05.478Z,23.4
2019-01-15T06:38:05.182Z,23.4
2019-01-15T06:40:04.895Z,23.5
2019-01-15T06:42:05.538Z,23.4
2019-01-15T06:44:05.211Z,23.5
2019-01-15T06:46:07.552Z,23.4
2019-01-15T06:48:05.325Z,23.4
2019-01-15T06:50:07.664Z,23.4
2019-01-15T06:52:05.420Z,23.4
2019-01-15T06:54:05.114Z,23.4
2019-01-15T06:56:05.417Z,23.4
2019-01-15T06:58:05.079Z,23.4
2019-01-15T07:00:05.271Z,23.4
2019-01-15T07:02:04.983Z,23.4
2019-01-15T07:04:05.722Z,23.4
2019-01-15T07:06:07.749Z,23.5
2019-01-15T07:08:05.033Z,23.5
2019-01-15T07:10:09.796Z,23.6
2019-01-15T07:12:07.996Z,23.6
2019-01-15T07:14:04.672Z,23.6
2019-01-15T07:16:05.365Z,23.6
2019-01-15T07:18:04.861Z,23.6
2019-01-15T07:20:05.724Z,23.6
2019-01-15T07:22:10.895Z,23.6
2019-01-15T07:24:05.068Z,23.6
2019-01-15T07:26:05.323Z,23.6
2019-01-15T07:28:05.145Z,23.6
2019-01-15T07:30:07.872Z,23.6
2019-01-15T07:32:05.050Z,23.6
2019-01-15T07:34:04.772Z,23.6
2019-01-15T07:36:04.736Z,23.6
2019-01-15T07:38:05.453Z,23.6
2019-01-15T07:40:05.186Z,23.6
2019-01-15T07:42:05.562Z,23.6
2019-01-15T07:44:05.350Z,23.6
2019-01-15T07:46:05.085Z,23.6
2019-01-15T07:48:04.777Z,23.6
2019-01-15T07:50:05.528Z,23.6
2019-01-15T07:52:12.920Z,23.6
2019-01-15T07:54:05.612Z,23.6
2019-01-15T07:56:15.431Z,23.6
2019-01-15T07:58:05.213Z,23.6
2019-01-15T08:00:05.430Z,23.6
2019-01-15T08:02:04.622Z,23.6
2019-01-15T08:04:05.364Z,23.6
2019-01-15T08:06:05.038Z,23.6
2019-01-15T08:08:04.774Z,23.5
2019-01-15T08:10:05.500Z,23.6
2019-01-15T08:12:04.781Z,23.6
2019-01-15T08:14:11.651Z,23.5
2019-01-15T08:16:07.360Z,23.5
2019-01-15T08:18:05.233Z,23.5
2019-01-15T08:20:04.979Z,23.5
2019-01-15T08:22:04.704Z,23.5
2019-01-15T08:24:07.974Z,23.5
2019-01-15T08:26:05.325Z,23.5
2019-01-15T08:28:05.044Z,23.5
2019-01-15T08:30:04.748Z,23.5
2019-01-15T08:32:05.450Z,23.5
2019-01-15T08:34:04.662Z,23.5
2019-01-15T08:36:13.182Z,23.5
2019-01-15T08:38:07.530Z,23.5
2019-01-15T08:40:07.782Z,23.5
2019-01-15T08:42:05.503Z,23.5
2019-01-15T08:44:05.272Z,23.5
2019-01-15T08:46:10.028Z,23.5
2019-01-15T08:48:04.714Z,23.5
2019-01-15T08:50:05.416Z,23.4
2019-01-15T08:52:05.087Z,23.4
2019-01-15T08:54:07.388Z,23.5
2019-01-15T08:56:04.648Z,23.5
2019-01-15T08:58:07.927Z,23.5
2019-01-15T09:00:04.700Z,23.5
2019-01-15T09:02:05.484Z,23.5
2019-01-15T09:04:04.773Z,23.5
2019-01-15T09:06:05.667Z,23.5
2019-01-15T09:08:10.411Z,23.5
2019-01-15T09:10:05.124Z,23.5
2019-01-15T09:12:04.869Z,23.5
2019-01-15T09:14:10.607Z,23.4
2019-01-15T09:16:05.509Z,23.5
2019-01-15T09:18:05.463Z,23.5
2019-01-15T09:20:05.199Z,23.4
2019-01-15T09:22:05.027Z,23.4
2019-01-15T09:24:04.730Z,23.4
2019-01-15T09:26:07.920Z,23.4
2019-01-15T09:28:04.793Z,23.4
2019-01-15T09:30:05.605Z,23.4
2019-01-15T09:32:08.013Z,23.4
2019-01-15T09:34:12.875Z,23.4
2019-01-15T09:36:04.645Z,23.4
2019-01-15T09:38:05.343Z,23.4
2019-01-15T09:40:07.549Z,23.4
2019-01-15T09:42:05.267Z,23.4
2019-01-15T09:44:04.960Z,23.4
2019-01-15T09:46:07.174Z,23.4
2019-01-15T09:48:07.471Z,23.4
2019-01-15T09:50:09.886Z,23.4
2019-01-15T09:52:12.914Z,23.4
2019-01-15T09:54:05.098Z,23.4
2019-01-15T09:56:09.858Z,23.4
2019-01-15T09:58:05.527Z,23.4
2019-01-15T10:00:05.225Z,23.5
2019-01-15T10:02:07.598Z,23.5
2019-01-15T10:04:04.845Z,23.5
2019-01-15T10:06:05.600Z,23.5
2019-01-15T10:08:05.398Z,23.5
2019-01-15T10:10:10.859Z,23.5
2019-01-15T10:12:05.583Z,23.5
2019-01-15T10:14:07.896Z,23.5
2019-01-15T10:16:05.165Z,23.5
2019-01-15T10:18:05.041Z,23.5
2019-01-15T10:20:04.751Z,23.5
2019-01-15T10:22:05.099Z,23.5
2019-01-15T10:24:07.317Z,23.5
2019-01-15T10:26:05.005Z,23.5
2019-01-15T10:28:07.240Z,23.5
2019-01-15T10:30:09.953Z,23.5
2019-01-15T10:32:04.789Z,23.5
2019-01-15T10:34:05.471Z,23.5
2019-01-15T10:36:05.332Z,23.5
2019-01-15T10:38:05.204Z,23.5
2019-01-15T10:40:05.052Z,23.5
2019-01-15T10:42:07.596Z,23.5
2019-01-15T10:44:12.923Z,23.5
2019-01-15T10:46:05.659Z,23.5
2019-01-15T10:48:05.331Z,23.5
2019-01-15T10:50:05.051Z,23.5
2019-01-15T10:52:04.815Z,23.5
2019-01-15T10:54:12.572Z,23.5
2019-01-15T10:56:04.836Z,23.4
2019-01-15T10:58:05.568Z,23.5
2019-01-15T11:00:08.088Z,23.5
2019-01-15T11:02:12.431Z,23.5
2019-01-15T11:04:05.142Z,23.5
2019-01-15T11:06:05.604Z,23.5
2019-01-15T11:08:05.303Z,23.5
2019-01-15T11:10:05.550Z,23.4
2019-01-15T11:12:04.782Z,23.5
2019-01-15T11:14:08.090Z,23.4
2019-01-15T11:18:06.083Z,23.4
2019-01-15T11:20:59.989Z,23.4
2019-01-15T11:22:04.740Z,23.4
2019-01-15T11:24:05.409Z,23.3
2019-01-15T11:26:05.140Z,23.4
2019-01-15T11:28:04.847Z,23.4
2019-01-15T11:30:05.551Z,23.4
2019-01-15T11:32:05.302Z,23.4
2019-01-15T11:34:05.096Z,23.4
2019-01-15T11:36:05.013Z,23.4
2019-01-15T11:38:07.215Z,23.4
2019-01-15T11:40:09.971Z,23.4
2019-01-15T11:42:04.824Z,23.4
2019-01-15T11:44:05.129Z,23.4
2019-01-15T11:46:04.796Z,23.4
2019-01-15T11:48:05.064Z,23.4
2019-01-15T11:50:04.788Z,23.4
2019-01-15T11:52:07.449Z,23.4
2019-01-15T11:54:07.717Z,23.4
2019-01-15T11:56:05.417Z,23.5
2019-01-15T11:58:04.667Z,23.4
2019-01-15T12:00:05.328Z,23.4
2019-01-15T12:02:05.572Z,23.4
2019-01-15T12:04:10.329Z,23.5
2019-01-15T12:06:05.003Z,23.5
2019-01-15T12:08:04.742Z,23.4
2019-01-15T12:10:05.442Z,23.4
2019-01-15T12:12:05.257Z,23.5
2019-01-15T12:14:07.459Z,23.5
2019-01-15T12:16:04.679Z,23.5
2019-01-15T12:18:08.155Z,23.5
2019-01-15T12:20:07.398Z,23.5
2019-01-15T12:22:05.095Z,23.5
2019-01-15T12:24:05.273Z,23.5
2019-01-15T12:26:05.042Z,23.5
2019-01-15T12:28:04.715Z,23.5
2019-01-15T12:30:06.402Z,23.5
2019-01-15T12:32:06.078Z,23.5
2019-01-15T12:34:07.262Z,23.5
2019-01-15T12:36:04.938Z,23.5
2019-01-15T12:38:04.660Z,23.5
2019-01-15T12:40:04.872Z,23.5
2019-01-15T12:42:08.083Z,23.5
2019-01-15T12:44:04.977Z,23.5
2019-01-15T12:46:05.109Z,23.5
2019-01-15T12:48:04.790Z,23.5
2019-01-15T12:50:08.947Z,23.5
2019-01-15T12:52:05.645Z,23.5
2019-01-15T12:54:05.357Z,23.5
2019-01-15T12:56:05.197Z,23.5
2019-01-15T12:58:04.911Z,23.5
2019-01-15T13:00:05.152Z,23.5
2019-01-15T13:02:04.915Z,23.5
2019-01-15T13:04:05.596Z,23.5
2019-01-15T13:06:05.321Z,23.5
2019-01-15T13:08:08.074Z,23.5
2019-01-15T13:10:04.840Z,23.5
2019-01-15T13:12:05.516Z,23.5
2019-01-15T13:14:05.189Z,23.5
2019-01-15T13:16:04.875Z,23.5
2019-01-15T13:18:04.778Z,23.5
2019-01-15T13:20:05.463Z,23.5
2019-01-15T13:22:07.674Z,23.5
2019-01-15T13:24:05.468Z,23.5
2019-01-15T13:26:05.094Z,23.5
2019-01-15T13:28:04.788Z,23.5
2019-01-15T13:30:05.585Z,23.5
2019-01-15T13:32:07.880Z,23.5
2019-01-15T13:34:05.554Z,23.5
2019-01-15T13:36:04.772Z,23.5
2019-01-15T13:38:05.490Z,23.5
2019-01-15T13:40:05.170Z,23.5
2019-01-15T13:42:04.905Z,23.5
2019-01-15T13:44:05.165Z,23.5
2019-01-15T13:46:07.368Z,23.5
2019-01-15T13:48:05.048Z,23.5
2019-01-15T13:50:04.737Z,23.5
2019-01-15T13:52:07.935Z,23.5
2019-01-15T13:54:05.585Z,23.5
2019-01-15T13:56:07.831Z,23.5
2019-01-15T13:58:05.539Z,23.5
2019-01-15T14:00:05.262Z,23.5
2019-01-15T14:02:05.359Z,23.5
2019-01-15T14:04:05.143Z,23.5
2019-01-15T14:06:05.339Z,23.5
2019-01-15T14:08:05.063Z,23.5
2019-01-15T14:10:07.713Z,23.5
2019-01-15T14:12:05.417Z,23.5
2019-01-15T14:14:05.106Z,23.5
2019-01-15T14:16:04.809Z,23.5
2019-01-15T14:18:04.711Z,23.5
2019-01-15T14:20:05.162Z,23.4
2019-01-15T14:22:07.375Z,23.5
2019-01-15T14:24:05.064Z,23.5
2019-01-15T14:26:04.699Z,23.4
2019-01-15T14:28:05.380Z,23.4
2019-01-15T14:30:05.391Z,23.4
2019-01-15T14:32:05.099Z,23.4
2019-01-15T14:34:07.428Z,23.4
2019-01-15T14:36:05.226Z,23.4
2019-01-15T14:38:05.193Z,23.4
2019-01-15T14:40:07.523Z,23.4
2019-01-15T14:42:05.264Z,23.4
2019-01-15T14:44:04.958Z,23.4
2019-01-15T14:46:05.057Z,23.4
2019-01-15T14:48:04.810Z,23.4
2019-01-15T14:50:05.487Z,23.4
2019-01-15T14:52:05.117Z,23.4
2019-01-15T14:54:04.768Z,23.4
2019-01-15T14:56:05.466Z,23.4
2019-01-15T14:58:05.321Z,23.4
2019-01-15T15:00:05.036Z,23.4
2019-01-15T15:02:04.691Z,23.4
2019-01-15T15:04:08.102Z,23.4
2019-01-15T15:06:04.798Z,23.4
2019-01-15T15:08:08.102Z,23.4
2019-01-15T15:10:04.826Z,23.4
2019-01-15T15:12:05.688Z,23.4
2019-01-15T15:14:05.371Z,23.4
2019-01-15T15:16:05.080Z,23.4
2019-01-15T15:18:04.948Z,23.4
2019-01-15T15:20:04.649Z,23.4
2019-01-15T15:22:05.371Z,23.4
2019-01-15T15:24:05.062Z,23.4
2019-01-15T15:26:04.723Z,23.4
2019-01-15T15:28:05.450Z,23.4
2019-01-15T15:30:05.298Z,23.4
2019-01-15T15:32:05.022Z,23.4
2019-01-15T15:34:07.357Z,23.3
2019-01-15T15:36:05.053Z,23.3
2019-01-15T15:38:05.001Z,23.3
2019-01-15T15:40:05.242Z,23.4
2019-01-15T15:42:10.054Z,23.5
2019-01-15T15:44:04.784Z,23.5
2019-01-15T15:46:11.090Z,23.6
2019-01-15T15:48:05.019Z,23.7
2019-01-15T15:50:04.703Z,23.7
2019-01-15T15:52:05.490Z,23.8
2019-01-15T15:54:04.739Z,23.8
2019-01-15T15:56:08.039Z,23.9
2019-01-15T15:58:04.721Z,23.8
2019-01-15T16:00:08.103Z,23.9
2019-01-15T16:02:04.838Z,23.9
2019-01-15T16:04:10.664Z,24
2019-01-15T16:06:05.329Z,24
2019-01-15T16:08:04.987Z,24
2019-01-15T16:10:04.684Z,24
2019-01-15T16:12:07.902Z,24
2019-01-15T16:14:05.596Z,24
2019-01-15T16:16:04.881Z,24
2019-01-15T16:18:04.928Z,24
2019-01-15T16:20:04.646Z,24.1
2019-01-15T16:22:05.572Z,24.1
2019-01-15T16:24:05.289Z,24.1
2019-01-15T16:26:04.978Z,24.1
2019-01-15T16:28:04.747Z,24.1
2019-01-15T16:30:05.414Z,24.1
2019-01-15T16:32:07.636Z,24.1
2019-01-15T16:34:05.375Z,24.1
2019-01-15T16:36:05.116Z,24.1
2019-01-15T16:38:12.683Z,24.1
2019-01-15T16:40:04.984Z,24
2019-01-15T16:42:04.628Z,24.1
2019-01-15T16:44:05.342Z,24
2019-01-15T16:46:04.999Z,24
2019-01-15T16:48:05.090Z,24
2019-01-15T16:50:11.364Z,24
2019-01-15T16:52:05.220Z,24
2019-01-15T16:54:05.434Z,24
2019-01-15T16:56:04.689Z,24
2019-01-15T16:58:05.372Z,24
2019-01-15T17:00:10.109Z,24
2019-01-15T17:02:09.824Z,24
2019-01-15T17:04:05.497Z,24
2019-01-15T17:06:07.808Z,24
2019-01-15T17:08:05.637Z,24
2019-01-15T17:10:05.295Z,24
2019-01-15T17:12:08.043Z,24
2019-01-15T17:14:04.773Z,24
2019-01-15T17:16:05.513Z,24
2019-01-15T17:18:05.406Z,24
2019-01-15T17:20:05.107Z,24
2019-01-15T17:22:04.783Z,24
2019-01-15T17:24:05.527Z,24
2019-01-15T17:26:05.293Z,24
2019-01-15T17:28:05.503Z,24
2019-01-15T17:30:05.184Z,24
2019-01-15T17:32:10.525Z,24
2019-01-15T17:34:04.952Z,24
2019-01-15T17:36:04.618Z,24.1
2019-01-15T17:38:05.511Z,24.1
2019-01-15T17:40:07.249Z,24.1
2019-01-15T17:42:04.919Z,24.1
2019-01-15T17:44:05.261Z,24.1
2019-01-15T17:46:05.483Z,24
2019-01-15T17:48:05.207Z,24.1
2019-01-15T17:50:05.446Z,24.1
2019-01-15T17:52:07.694Z,24.1
2019-01-15T17:54:05.416Z,24.1
2019-01-15T17:56:05.120Z,24.1
2019-01-15T17:58:04.859Z,24.1
2019-01-15T18:00:15.679Z,24.1
2019-01-15T18:02:05.522Z,24.1
2019-01-15T18:04:05.260Z,24.1
2019-01-15T18:06:05.258Z,24.2
2019-01-15T18:08:04.945Z,24.1
2019-01-15T18:10:04.663Z,24.1
2019-01-15T18:12:05.393Z,24.1
2019-01-15T18:14:10.157Z,24
2019-01-15T18:16:04.819Z,24.1
2019-01-15T18:18:05.274Z,24
2019-01-15T18:20:05.000Z,24
2019-01-15T18:22:04.728Z,24
2019-01-15T18:24:05.386Z,24
2019-01-15T18:26:05.045Z,24
2019-01-15T18:28:05.110Z,23.9
2019-01-15T18:30:04.891Z,23.9
2019-01-15T18:32:05.609Z,23.9
2019-01-15T18:34:05.299Z,23.9
2019-01-15T18:36:05.011Z,23.8
2019-01-15T18:38:04.728Z,23.8
2019-01-15T18:40:08.109Z,23.8
2019-01-15T18:42:04.876Z,23.7
2019-01-15T18:44:08.090Z,23.7
2019-01-15T18:46:04.786Z,23.7
2019-01-15T18:48:15.588Z,23.7
2019-01-15T18:50:05.274Z,23.7
2019-01-15T18:52:05.012Z,23.6
2019-01-15T18:54:04.722Z,23.7
2019-01-15T18:56:05.428Z,23.6
2019-01-15T18:58:05.200Z,23.6
2019-01-15T19:00:04.910Z,23.6
2019-01-15T19:02:05.132Z,23.6
2019-01-15T19:04:07.397Z,23.6
2019-01-15T19:06:05.141Z,23.6
2019-01-15T19:08:04.926Z,23.6
2019-01-15T19:10:07.665Z,23.6
2019-01-15T19:12:05.423Z,23.6
2019-01-15T19:14:05.176Z,23.6
2019-01-15T19:16:04.921Z,23.6
2019-01-15T19:18:04.870Z,23.6
2019-01-15T19:20:08.172Z,23.6
2019-01-15T19:22:04.978Z,23.5
2019-01-15T19:24:04.692Z,23.6
2019-01-15T19:26:07.490Z,23.6
2019-01-15T19:28:07.757Z,23.6
2019-01-15T19:30:05.204Z,23.5
2019-01-15T19:32:04.898Z,23.6
2019-01-15T19:34:05.584Z,23.6
2019-01-15T19:36:07.900Z,23.5
2019-01-15T19:38:04.899Z,23.5
2019-01-15T19:40:10.107Z,23.6
2019-01-15T19:42:12.372Z,23.5
2019-01-15T19:44:05.272Z,23.5
2019-01-15T19:46:04.959Z,23.5
2019-01-15T19:48:09.669Z,23.5
2019-01-15T19:50:07.891Z,23.5
2019-01-15T19:52:10.695Z,23.5
2019-01-15T19:54:07.887Z,23.5
2019-01-15T19:56:04.715Z,23.5
2019-01-15T19:58:05.668Z,23.5
2019-01-15T20:00:07.947Z,23.5
2019-01-15T20:02:04.652Z,23.5
2019-01-15T20:04:05.316Z,23.5
2019-01-15T20:06:05.226Z,23.5
2019-01-15T20:08:08.124Z,23.5
2019-01-15T20:10:04.813Z,23.5
2019-01-15T20:12:10.260Z,23.5
2019-01-15T20:14:04.949Z,23.5
2019-01-15T20:16:07.639Z,23.5
2019-01-15T20:18:10.111Z,23.4
2019-01-15T20:20:05.081Z,23.5
2019-01-15T20:22:05.585Z,23.5
2019-01-15T20:24:05.312Z,23.4
2019-01-15T20:26:05.535Z,23.4
2019-01-15T20:28:09.870Z,23.4
2019-01-15T20:30:05.563Z,23.4
2019-01-15T20:32:10.303Z,23.4
2019-01-15T20:34:05.527Z,23.4
2019-01-15T20:36:10.254Z,23.4
2019-01-15T20:38:12.592Z,23.4
2019-01-15T20:40:04.879Z,23.4
2019-01-15T20:42:04.614Z,23.5
2019-01-15T20:44:05.372Z,23.5
2019-01-15T20:46:05.087Z,23.5
2019-01-15T20:48:05.008Z,23.5
2019-01-15T20:50:20.467Z,23.5
2019-01-15T20:52:07.966Z,23.6
2019-01-15T20:54:05.416Z,23.5
2019-01-15T20:56:04.662Z,23.6
2019-01-15T20:58:05.452Z,23.6
2019-01-15T21:00:05.137Z,23.6
2019-01-15T21:02:07.352Z,23.6
2019-01-15T21:04:05.066Z,23.6
2019-01-15T21:06:05.533Z,23.6
2019-01-15T21:08:04.736Z,23.6
2019-01-15T21:10:05.482Z,23.6
2019-01-15T21:12:07.743Z,23.6
2019-01-15T21:14:07.189Z,23.6
2019-01-15T21:16:07.369Z,23.6
2019-01-15T21:18:05.267Z,23.6
2019-01-15T21:20:07.461Z,23.6
2019-01-15T21:22:05.354Z,23.6
2019-01-15T21:24:05.118Z,23.7
2019-01-15T21:26:04.732Z,23.7
2019-01-15T21:28:05.251Z,23.6
2019-01-15T21:30:07.693Z,23.7
2019-01-15T21:32:08.106Z,23.7
2019-01-15T21:34:04.759Z,23.6
2019-01-15T21:36:08.008Z,23.7
2019-01-15T21:38:09.749Z,23.7
2019-01-15T21:40:07.263Z,23.7
2019-01-15T21:42:07.475Z,23.7
2019-01-15T21:44:05.107Z,23.7
2019-01-15T21:46:09.826Z,23.7
2019-01-15T21:48:08.052Z,23.8
2019-01-15T21:50:04.802Z,23.8
2019-01-15T21:52:07.603Z,23.8
2019-01-15T21:54:04.819Z,23.8
2019-01-15T21:56:05.497Z,23.8
2019-01-15T21:58:05.514Z,23.8
2019-01-15T22:00:05.220Z,23.7
2019-01-15T22:02:05.024Z,23.8
2019-01-15T22:04:09.963Z,23.7
2019-01-15T22:06:04.750Z,23.7
2019-01-15T22:08:07.786Z,23.7
2019-01-15T22:10:08.016Z,23.6
2019-01-15T22:12:04.713Z,23.7
2019-01-15T22:14:05.897Z,23.6
2019-01-15T22:16:05.654Z,23.6
2019-01-15T22:18:04.722Z,23.6
2019-01-15T22:20:04.987Z,23.6
2019-01-15T22:22:04.694Z,23.6
2019-01-15T22:24:05.523Z,23.6
2019-01-15T22:26:05.429Z,23.6
2019-01-15T22:28:07.618Z,23.5
2019-01-15T22:30:07.532Z,23.5
2019-01-15T22:32:04.722Z,23.5
2019-01-15T22:34:07.954Z,23.4
2019-01-15T22:36:04.880Z,23.4
2019-01-15T22:38:08.115Z,23.4
2019-01-15T22:40:09.862Z,23.3
2019-01-15T22:42:05.502Z,23.3
2019-01-15T22:44:05.193Z,23.3
2019-01-15T22:46:04.968Z,23.3
2019-01-15T22:48:04.693Z,23.3
2019-01-15T22:50:07.905Z,23.3
2019-01-15T22:52:08.108Z,23.3
2019-01-15T22:54:04.748Z,23.3
2019-01-15T22:56:09.985Z,23.2
2019-01-15T22:58:04.653Z,23.2
2019-01-15T23:00:07.914Z,23.2
2019-01-15T23:02:04.645Z,23.2
2019-01-15T23:04:05.365Z,23.1
2019-01-15T23:06:05.580Z,23.1
2019-01-15T23:08:05.237Z,23
2019-01-15T23:10:05.233Z,23
2019-01-15T23:12:04.982Z,23
2019-01-15T23:14:04.669Z,23
2019-01-15T23:16:07.914Z,22.9
2019-01-15T23:18:12.908Z,22.9
2019-01-15T23:20:05.617Z,22.9
2019-01-15T23:22:05.289Z,22.9
2019-01-15T23:24:04.991Z,22.9
2019-01-15T23:26:04.656Z,22.9
2019-01-15T23:28:05.326Z,22.9
2019-01-15T23:30:07.664Z,22.9
2019-01-15T23:32:05.302Z,22.8
2019-01-15T23:34:04.998Z,22.8
2019-01-15T23:36:10.287Z,22.8
2019-01-15T23:38:05.764Z,22.8
2019-01-15T23:40:04.992Z,22.8
2019-01-15T23:42:04.674Z,22.8
2019-01-15T23:44:05.379Z,22.7
2019-01-15T23:46:08.068Z,22.8
2019-01-15T23:48:09.594Z,22.8
2019-01-15T23:50:05.497Z,22.8
2019-01-15T23:52:07.713Z,22.7
2019-01-15T23:54:05.005Z,22.7
2019-01-15T23:56:04.784Z,22.7
2019-01-15T23:58:05.482Z,22.7
